Vernon, Michigan
Current Conditions -  °F | °C
As of 11:14 PM on Sunday 23 Nov 2014 (Local Time) from KRNP Reporting Station
Heavy Rain Heavy Rain  
Wind Chill: 45°   Ceiling: 1000
Heat Index: 49°   Visibility: 4mi
Dew Point: 49°   Wind: 10mph
Humidity: 99%   Direction: 110°ESE
Pressure: 29.23"   Gusts: NA
Location:  42.94°N, 84.03°W
Report Text: KRNP 240414Z AUTO 11009KT 4SM +RA BKN010 OVC017 10/10 A2923 RMK AO2 T00970095
Loading
Personal Weather Stations






























Interactive Weather Map New forecast layout! Learn more

10-Day Weather Forecast

Advertisements
Track Severe Weather on mobile